sensor_id;sensor_type;location;lat;lon;timestamp;P1;durP1;ratioP1;P2;durP2;ratioP2
64282;SDS011;50497;50.720;-2.084;2023-12-20T00:01:50;9.75;;;2.75;;
64282;SDS011;50497;50.720;-2.084;2023-12-20T00:04:16;9.82;;;2.75;;
64282;SDS011;50497;50.720;-2.084;2023-12-20T00:06:41;10.40;;;2.73;;
64282;SDS011;50497;50.720;-2.084;2023-12-20T00:09:06;10.77;;;2.50;;
64282;SDS011;50497;50.720;-2.084;2023-12-20T00:11:32;12.10;;;2.57;;
64282;SDS011;50497;50.720;-2.084;2023-12-20T00:13:57;12.20;;;2.77;;
64282;SDS011;50497;50.720;-2.084;2023-12-20T00:16:22;12.30;;;2.90;;
64282;SDS011;50497;50.720;-2.084;2023-12-20T00:18:48;9.73;;;2.87;;
64282;SDS011;50497;50.720;-2.084;2023-12-20T00:21:13;13.67;;;2.93;;
64282;SDS011;50497;50.720;-2.084;2023-12-20T00:23:39;12.30;;;2.80;;
64282;SDS011;50497;50.720;-2.084;2023-12-20T00:26:04;9.87;;;2.90;;
64282;SDS011;50497;50.720;-2.084;2023-12-20T00:28:29;15.57;;;3.30;;
64282;SDS011;50497;50.720;-2.084;2023-12-20T00:30:55;11.97;;;2.73;;
64282;SDS011;50497;50.720;-2.084;2023-12-20T00:33:20;11.93;;;2.43;;
64282;SDS011;50497;50.720;-2.084;2023-12-20T00:35:46;12.70;;;2.63;;
64282;SDS011;50497;50.720;-2.084;2023-12-20T00:38:11;10.83;;;2.43;;
64282;SDS011;50497;50.720;-2.084;2023-12-20T00:40:37;12.13;;;2.60;;
64282;SDS011;50497;50.720;-2.084;2023-12-20T00:43:02;13.18;;;2.45;;
64282;SDS011;50497;50.720;-2.084;2023-12-20T00:45:28;11.57;;;2.97;;
64282;SDS011;50497;50.720;-2.084;2023-12-20T00:47:54;14.47;;;3.00;;
64282;SDS011;50497;50.720;-2.084;2023-12-20T00:50:19;12.98;;;2.78;;
64282;SDS011;50497;50.720;-2.084;2023-12-20T00:52:46;11.13;;;2.60;;
64282;SDS011;50497;50.720;-2.084;2023-12-20T00:55:12;10.65;;;2.50;;
64282;SDS011;50497;50.720;-2.084;2023-12-20T00:57:37;12.50;;;2.83;;
64282;SDS011;50497;50.720;-2.084;2023-12-20T01:00:03;11.50;;;2.70;;
64282;SDS011;50497;50.720;-2.084;2023-12-20T01:02:29;11.47;;;2.40;;
64282;SDS011;50497;50.720;-2.084;2023-12-20T01:04:54;11.30;;;2.80;;
64282;SDS011;50497;50.720;-2.084;2023-12-20T01:07:19;13.20;;;2.50;;
64282;SDS011;50497;50.720;-2.084;2023-12-20T01:09:45;12.02;;;2.45;;
64282;SDS011;50497;50.720;-2.084;2023-12-20T01:12:10;12.45;;;2.50;;
64282;SDS011;50497;50.720;-2.084;2023-12-20T01:14:36;13.63;;;2.70;;
64282;SDS011;50497;50.720;-2.084;2023-12-20T01:17:01;13.47;;;2.67;;
64282;SDS011;50497;50.720;-2.084;2023-12-20T01:19:27;10.40;;;2.50;;
64282;SDS011;50497;50.720;-2.084;2023-12-20T01:21:53;14.57;;;2.70;;
64282;SDS011;50497;50.720;-2.084;2023-12-20T01:24:18;12.53;;;2.60;;
64282;SDS011;50497;50.720;-2.084;2023-12-20T01:26:44;12.30;;;2.70;;
64282;SDS011;50497;50.720;-2.084;2023-12-20T01:29:09;12.13;;;2.60;;
64282;SDS011;50497;50.720;-2.084;2023-12-20T01:31:35;12.07;;;2.60;;
64282;SDS011;50497;50.720;-2.084;2023-12-20T01:34:00;14.07;;;2.83;;
64282;SDS011;50497;50.720;-2.084;2023-12-20T01:36:25;12.77;;;2.80;;
64282;SDS011;50497;50.720;-2.084;2023-12-20T01:38:51;13.80;;;2.70;;
64282;SDS011;50497;50.720;-2.084;2023-12-20T01:41:16;12.67;;;2.80;;
64282;SDS011;50497;50.720;-2.084;2023-12-20T01:43:42;12.60;;;2.53;;
64282;SDS011;50497;50.720;-2.084;2023-12-20T01:46:08;12.95;;;2.60;;
64282;SDS011;50497;50.720;-2.084;2023-12-20T01:48:33;13.40;;;2.88;;
64282;SDS011;50497;50.720;-2.084;2023-12-20T01:51:00;12.50;;;2.53;;
64282;SDS011;50497;50.720;-2.084;2023-12-20T01:53:27;15.32;;;2.90;;
64282;SDS011;50497;50.720;-2.084;2023-12-20T01:55:53;13.83;;;3.00;;
64282;SDS011;50497;50.720;-2.084;2023-12-20T01:58:20;12.88;;;2.83;;
64282;SDS011;50497;50.720;-2.084;2023-12-20T02:00:46;11.82;;;2.70;;
64282;SDS011;50497;50.720;-2.084;2023-12-20T02:03:12;18.02;;;3.15;;
64282;SDS011;50497;50.720;-2.084;2023-12-20T02:05:37;15.00;;;3.07;;
64282;SDS011;50497;50.720;-2.084;2023-12-20T02:08:04;11.63;;;2.97;;
64282;SDS011;50497;50.720;-2.084;2023-12-20T02:10:30;13.13;;;2.60;;
64282;SDS011;50497;50.720;-2.084;2023-12-20T02:12:56;10.88;;;2.40;;
64282;SDS011;50497;50.720;-2.084;2023-12-20T02:15:22;14.52;;;2.92;;
64282;SDS011;50497;50.720;-2.084;2023-12-20T02:17:47;13.70;;;2.87;;
64282;SDS011;50497;50.720;-2.084;2023-12-20T02:20:13;14.73;;;2.70;;
64282;SDS011;50497;50.720;-2.084;2023-12-20T02:22:39;14.20;;;2.58;;
64282;SDS011;50497;50.720;-2.084;2023-12-20T02:25:04;12.38;;;2.50;;
64282;SDS011;50497;50.720;-2.084;2023-12-20T02:27:30;13.05;;;2.70;;
64282;SDS011;50497;50.720;-2.084;2023-12-20T02:29:56;13.05;;;2.88;;
64282;SDS011;50497;50.720;-2.084;2023-12-20T02:32:21;14.70;;;2.70;;
64282;SDS011;50497;50.720;-2.084;2023-12-20T02:34:51;13.48;;;2.63;;
64282;SDS011;50497;50.720;-2.084;2023-12-20T02:37:16;13.07;;;2.57;;
64282;SDS011;50497;50.720;-2.084;2023-12-20T02:39:42;15.43;;;2.90;;
64282;SDS011;50497;50.720;-2.084;2023-12-20T02:42:07;12.67;;;2.87;;
64282;SDS011;50497;50.720;-2.084;2023-12-20T02:44:32;13.50;;;2.67;;
64282;SDS011;50497;50.720;-2.084;2023-12-20T02:46:58;13.13;;;2.73;;
64282;SDS011;50497;50.720;-2.084;2023-12-20T02:49:23;13.23;;;2.80;;
64282;SDS011;50497;50.720;-2.084;2023-12-20T02:51:49;17.20;;;2.80;;
64282;SDS011;50497;50.720;-2.084;2023-12-20T02:54:14;11.47;;;2.50;;
64282;SDS011;50497;50.720;-2.084;2023-12-20T02:56:39;14.50;;;2.93;;
64282;SDS011;50497;50.720;-2.084;2023-12-20T02:59:05;13.90;;;3.13;;
64282;SDS011;50497;50.720;-2.084;2023-12-20T03:01:31;13.05;;;2.70;;
64282;SDS011;50497;50.720;-2.084;2023-12-20T03:03:57;11.60;;;2.55;;
64282;SDS011;50497;50.720;-2.084;2023-12-20T03:06:22;14.02;;;2.63;;
64282;SDS011;50497;50.720;-2.084;2023-12-20T03:08:48;13.68;;;2.58;;
64282;SDS011;50497;50.720;-2.084;2023-12-20T03:11:13;13.27;;;2.67;;
64282;SDS011;50497;50.720;-2.084;2023-12-20T03:13:38;12.53;;;2.60;;
64282;SDS011;50497;50.720;-2.084;2023-12-20T03:16:10;12.23;;;2.60;;
64282;SDS011;50497;50.720;-2.084;2023-12-20T03:18:37;13.27;;;2.60;;
64282;SDS011;50497;50.720;-2.084;2023-12-20T03:21:02;11.60;;;2.50;;
64282;SDS011;50497;50.720;-2.084;2023-12-20T03:23:29;12.27;;;2.40;;
64282;SDS011;50497;50.720;-2.084;2023-12-20T03:25:55;12.88;;;2.30;;
64282;SDS011;50497;50.720;-2.084;2023-12-20T03:28:21;13.17;;;2.67;;
64282;SDS011;50497;50.720;-2.084;2023-12-20T03:30:48;12.02;;;2.47;;
64282;SDS011;50497;50.720;-2.084;2023-12-20T03:33:13;16.05;;;2.83;;
64282;SDS011;50497;50.720;-2.084;2023-12-20T03:35:39;12.40;;;2.53;;
64282;SDS011;50497;50.720;-2.084;2023-12-20T03:38:04;12.60;;;2.60;;
64282;SDS011;50497;50.720;-2.084;2023-12-20T03:40:30;12.97;;;2.63;;
64282;SDS011;50497;50.720;-2.084;2023-12-20T03:42:55;13.17;;;2.80;;
64282;SDS011;50497;50.720;-2.084;2023-12-20T03:45:20;11.83;;;2.60;;
64282;SDS011;50497;50.720;-2.084;2023-12-20T03:47:46;13.40;;;2.72;;
64282;SDS011;50497;50.720;-2.084;2023-12-20T03:50:12;13.23;;;2.60;;
64282;SDS011;50497;50.720;-2.084;2023-12-20T03:52:38;11.95;;;2.50;;
64282;SDS011;50497;50.720;-2.084;2023-12-20T03:55:03;10.80;;;2.13;;
64282;SDS011;50497;50.720;-2.084;2023-12-20T03:57:29;13.73;;;2.60;;
64282;SDS011;50497;50.720;-2.084;2023-12-20T03:59:55;13.77;;;2.50;;
64282;SDS011;50497;50.720;-2.084;2023-12-20T04:02:20;12.70;;;2.40;;
64282;SDS011;50497;50.720;-2.084;2023-12-20T04:04:45;12.50;;;2.88;;
64282;SDS011;50497;50.720;-2.084;2023-12-20T04:07:11;12.80;;;2.53;;
64282;SDS011;50497;50.720;-2.084;2023-12-20T04:09:36;12.23;;;2.50;;
64282;SDS011;50497;50.720;-2.084;2023-12-20T04:12:02;15.13;;;2.40;;
64282;SDS011;50497;50.720;-2.084;2023-12-20T04:14:28;12.40;;;2.40;;
64282;SDS011;50497;50.720;-2.084;2023-12-20T04:16:53;13.27;;;2.65;;
64282;SDS011;50497;50.720;-2.084;2023-12-20T04:19:19;12.47;;;2.60;;
64282;SDS011;50497;50.720;-2.084;2023-12-20T04:21:44;13.50;;;2.50;;
64282;SDS011;50497;50.720;-2.084;2023-12-20T04:24:10;11.90;;;2.30;;
64282;SDS011;50497;50.720;-2.084;2023-12-20T04:26:35;12.57;;;2.60;;
64282;SDS011;50497;50.720;-2.084;2023-12-20T04:29:01;16.80;;;2.63;;
64282;SDS011;50497;50.720;-2.084;2023-12-20T04:31:26;13.33;;;2.50;;
64282;SDS011;50497;50.720;-2.084;2023-12-20T04:33:51;10.87;;;2.70;;
64282;SDS011;50497;50.720;-2.084;2023-12-20T04:36:17;11.73;;;2.43;;
64282;SDS011;50497;50.720;-2.084;2023-12-20T04:38:42;14.57;;;2.90;;
64282;SDS011;50497;50.720;-2.084;2023-12-20T04:41:08;14.20;;;2.57;;
64282;SDS011;50497;50.720;-2.084;2023-12-20T04:43:33;11.83;;;2.83;;
64282;SDS011;50497;50.720;-2.084;2023-12-20T04:45:58;12.07;;;2.40;;
64282;SDS011;50497;50.720;-2.084;2023-12-20T04:48:24;12.82;;;2.45;;
64282;SDS011;50497;50.720;-2.084;2023-12-20T04:50:49;11.57;;;2.53;;
64282;SDS011;50497;50.720;-2.084;2023-12-20T04:53:14;11.47;;;2.53;;
64282;SDS011;50497;50.720;-2.084;2023-12-20T04:55:40;13.27;;;2.60;;
64282;SDS011;50497;50.720;-2.084;2023-12-20T04:58:05;13.77;;;2.40;;
64282;SDS011;50497;50.720;-2.084;2023-12-20T05:00:31;12.27;;;2.37;;
64282;SDS011;50497;50.720;-2.084;2023-12-20T05:02:56;11.45;;;2.50;;
64282;SDS011;50497;50.720;-2.084;2023-12-20T05:05:21;13.93;;;2.83;;
64282;SDS011;50497;50.720;-2.084;2023-12-20T05:07:47;11.57;;;2.40;;
64282;SDS011;50497;50.720;-2.084;2023-12-20T05:10:12;10.95;;;2.35;;
64282;SDS011;50497;50.720;-2.084;2023-12-20T05:12:38;13.48;;;2.50;;
64282;SDS011;50497;50.720;-2.084;2023-12-20T05:15:04;15.30;;;2.77;;
64282;SDS011;50497;50.720;-2.084;2023-12-20T05:17:31;14.93;;;2.80;;
64282;SDS011;50497;50.720;-2.084;2023-12-20T05:19:56;10.77;;;2.47;;
64282;SDS011;50497;50.720;-2.084;2023-12-20T05:22:21;12.47;;;2.60;;
64282;SDS011;50497;50.720;-2.084;2023-12-20T05:24:47;16.57;;;2.90;;
64282;SDS011;50497;50.720;-2.084;2023-12-20T05:27:12;15.03;;;2.83;;
64282;SDS011;50497;50.720;-2.084;2023-12-20T05:29:38;12.37;;;2.80;;
64282;SDS011;50497;50.720;-2.084;2023-12-20T05:32:03;13.23;;;2.63;;
64282;SDS011;50497;50.720;-2.084;2023-12-20T05:34:30;13.00;;;2.60;;
64282;SDS011;50497;50.720;-2.084;2023-12-20T05:36:56;15.02;;;2.58;;
64282;SDS011;50497;50.720;-2.084;2023-12-20T05:39:21;15.77;;;2.97;;
64282;SDS011;50497;50.720;-2.084;2023-12-20T05:41:47;12.10;;;2.70;;
64282;SDS011;50497;50.720;-2.084;2023-12-20T05:44:13;12.98;;;2.80;;
64282;SDS011;50497;50.720;-2.084;2023-12-20T05:46:38;14.13;;;2.83;;
64282;SDS011;50497;50.720;-2.084;2023-12-20T05:49:05;14.80;;;2.90;;
64282;SDS011;50497;50.720;-2.084;2023-12-20T05:51:30;15.67;;;2.87;;
64282;SDS011;50497;50.720;-2.084;2023-12-20T05:53:56;13.63;;;2.60;;
64282;SDS011;50497;50.720;-2.084;2023-12-20T05:56:21;14.00;;;2.63;;
64282;SDS011;50497;50.720;-2.084;2023-12-20T05:58:47;15.50;;;3.13;;
64282;SDS011;50497;50.720;-2.084;2023-12-20T06:01:14;12.13;;;2.53;;
64282;SDS011;50497;50.720;-2.084;2023-12-20T06:03:41;16.20;;;2.83;;
64282;SDS011;50497;50.720;-2.084;2023-12-20T06:06:08;13.60;;;2.72;;
64282;SDS011;50497;50.720;-2.084;2023-12-20T06:08:33;12.23;;;2.60;;
64282;SDS011;50497;50.720;-2.084;2023-12-20T06:10:59;13.70;;;2.70;;
64282;SDS011;50497;50.720;-2.084;2023-12-20T06:13:25;14.70;;;2.75;;
64282;SDS011;50497;50.720;-2.084;2023-12-20T06:15:50;11.97;;;2.70;;
64282;SDS011;50497;50.720;-2.084;2023-12-20T06:18:16;13.60;;;2.93;;
64282;SDS011;50497;50.720;-2.084;2023-12-20T06:20:41;12.20;;;2.73;;
64282;SDS011;50497;50.720;-2.084;2023-12-20T06:23:06;13.70;;;2.90;;
64282;SDS011;50497;50.720;-2.084;2023-12-20T06:25:32;14.73;;;2.93;;
64282;SDS011;50497;50.720;-2.084;2023-12-20T06:27:57;14.97;;;2.90;;
64282;SDS011;50497;50.720;-2.084;2023-12-20T06:30:23;13.47;;;2.47;;
64282;SDS011;50497;50.720;-2.084;2023-12-20T06:32:50;14.20;;;2.65;;
64282;SDS011;50497;50.720;-2.084;2023-12-20T06:35:15;12.20;;;3.03;;
64282;SDS011;50497;50.720;-2.084;2023-12-20T06:37:41;15.43;;;3.03;;
64282;SDS011;50497;50.720;-2.084;2023-12-20T06:40:08;15.25;;;2.70;;
64282;SDS011;50497;50.720;-2.084;2023-12-20T06:42:35;14.43;;;3.20;;
64282;SDS011;50497;50.720;-2.084;2023-12-20T06:45:00;12.75;;;2.75;;
64282;SDS011;50497;50.720;-2.084;2023-12-20T06:47:26;14.02;;;2.55;;
64282;SDS011;50497;50.720;-2.084;2023-12-20T06:49:51;13.95;;;2.75;;
64282;SDS011;50497;50.720;-2.084;2023-12-20T06:52:17;12.43;;;2.75;;
64282;SDS011;50497;50.720;-2.084;2023-12-20T06:54:42;13.63;;;2.57;;
64282;SDS011;50497;50.720;-2.084;2023-12-20T06:57:08;12.80;;;2.53;;
64282;SDS011;50497;50.720;-2.084;2023-12-20T06:59:37;11.67;;;2.60;;
64282;SDS011;50497;50.720;-2.084;2023-12-20T07:02:04;13.45;;;2.70;;
64282;SDS011;50497;50.720;-2.084;2023-12-20T07:04:30;13.75;;;2.60;;
64282;SDS011;50497;50.720;-2.084;2023-12-20T07:06:55;16.07;;;2.97;;
64282;SDS011;50497;50.720;-2.084;2023-12-20T07:09:22;14.75;;;2.70;;
64282;SDS011;50497;50.720;-2.084;2023-12-20T07:11:48;14.77;;;2.70;;
64282;SDS011;50497;50.720;-2.084;2023-12-20T07:14:14;12.83;;;2.73;;
64282;SDS011;50497;50.720;-2.084;2023-12-20T07:16:39;14.98;;;3.00;;
64282;SDS011;50497;50.720;-2.084;2023-12-20T07:19:05;14.10;;;2.83;;
64282;SDS011;50497;50.720;-2.084;2023-12-20T07:21:31;15.55;;;2.85;;
64282;SDS011;50497;50.720;-2.084;2023-12-20T07:23:57;14.13;;;3.00;;
64282;SDS011;50497;50.720;-2.084;2023-12-20T07:26:22;11.57;;;2.60;;
64282;SDS011;50497;50.720;-2.084;2023-12-20T07:28:48;11.77;;;2.80;;
64282;SDS011;50497;50.720;-2.084;2023-12-20T07:31:15;13.77;;;3.00;;
64282;SDS011;50497;50.720;-2.084;2023-12-20T07:33:40;12.57;;;3.00;;
64282;SDS011;50497;50.720;-2.084;2023-12-20T07:36:06;14.53;;;2.77;;
64282;SDS011;50497;50.720;-2.084;2023-12-20T07:38:31;13.20;;;2.50;;
64282;SDS011;50497;50.720;-2.084;2023-12-20T07:40:57;13.87;;;2.53;;
64282;SDS011;50497;50.720;-2.084;2023-12-20T07:43:22;13.30;;;2.60;;
64282;SDS011;50497;50.720;-2.084;2023-12-20T07:45:48;10.93;;;2.40;;
64282;SDS011;50497;50.720;-2.084;2023-12-20T07:48:13;11.43;;;2.40;;
64282;SDS011;50497;50.720;-2.084;2023-12-20T07:50:39;12.97;;;2.50;;
64282;SDS011;50497;50.720;-2.084;2023-12-20T07:53:04;13.70;;;2.67;;
64282;SDS011;50497;50.720;-2.084;2023-12-20T07:55:29;14.47;;;2.67;;
64282;SDS011;50497;50.720;-2.084;2023-12-20T07:57:56;12.18;;;2.35;;
64282;SDS011;50497;50.720;-2.084;2023-12-20T08:00:21;10.87;;;2.40;;
64282;SDS011;50497;50.720;-2.084;2023-12-20T08:02:46;12.07;;;2.13;;
64282;SDS011;50497;50.720;-2.084;2023-12-20T08:05:12;11.43;;;2.10;;
64282;SDS011;50497;50.720;-2.084;2023-12-20T08:07:38;11.93;;;2.30;;
64282;SDS011;50497;50.720;-2.084;2023-12-20T08:10:04;12.30;;;2.42;;
64282;SDS011;50497;50.720;-2.084;2023-12-20T08:12:30;14.00;;;2.63;;
64282;SDS011;50497;50.720;-2.084;2023-12-20T08:14:55;10.67;;;2.30;;
64282;SDS011;50497;50.720;-2.084;2023-12-20T08:17:22;12.00;;;2.70;;
64282;SDS011;50497;50.720;-2.084;2023-12-20T08:19:48;11.77;;;3.70;;
64282;SDS011;50497;50.720;-2.084;2023-12-20T08:22:14;12.32;;;2.85;;
64282;SDS011;50497;50.720;-2.084;2023-12-20T08:24:39;13.77;;;2.50;;
64282;SDS011;50497;50.720;-2.084;2023-12-20T08:27:05;11.07;;;2.27;;
64282;SDS011;50497;50.720;-2.084;2023-12-20T08:29:30;9.87;;;2.30;;
64282;SDS011;50497;50.720;-2.084;2023-12-20T08:31:56;10.50;;;2.27;;
64282;SDS011;50497;50.720;-2.084;2023-12-20T08:34:22;9.82;;;2.30;;
64282;SDS011;50497;50.720;-2.084;2023-12-20T08:36:48;10.30;;;2.53;;
64282;SDS011;50497;50.720;-2.084;2023-12-20T08:39:15;10.00;;;2.13;;
64282;SDS011;50497;50.720;-2.084;2023-12-20T08:41:40;10.03;;;2.77;;
64282;SDS011;50497;50.720;-2.084;2023-12-20T08:44:06;10.82;;;3.25;;
64282;SDS011;50497;50.720;-2.084;2023-12-20T08:46:31;12.95;;;3.13;;
64282;SDS011;50497;50.720;-2.084;2023-12-20T08:48:56;11.88;;;2.90;;
64282;SDS011;50497;50.720;-2.084;2023-12-20T08:51:22;11.05;;;2.45;;
64282;SDS011;50497;50.720;-2.084;2023-12-20T08:53:50;10.93;;;2.27;;
64282;SDS011;50497;50.720;-2.084;2023-12-20T08:56:16;11.50;;;2.42;;
64282;SDS011;50497;50.720;-2.084;2023-12-20T08:58:43;11.52;;;2.38;;
64282;SDS011;50497;50.720;-2.084;2023-12-20T09:01:08;10.57;;;2.47;;
64282;SDS011;50497;50.720;-2.084;2023-12-20T09:03:34;10.02;;;2.08;;
64282;SDS011;50497;50.720;-2.084;2023-12-20T09:06:00;10.93;;;2.10;;
64282;SDS011;50497;50.720;-2.084;2023-12-20T09:08:25;10.07;;;2.10;;
64282;SDS011;50497;50.720;-2.084;2023-12-20T09:10:51;22.63;;;16.10;;
64282;SDS011;50497;50.720;-2.084;2023-12-20T09:13:17;19.60;;;5.57;;
64282;SDS011;50497;50.720;-2.084;2023-12-20T09:15:42;11.70;;;2.23;;
64282;SDS011;50497;50.720;-2.084;2023-12-20T09:18:08;9.75;;;3.17;;
64282;SDS011;50497;50.720;-2.084;2023-12-20T09:20:33;12.80;;;2.90;;
64282;SDS011;50497;50.720;-2.084;2023-12-20T09:22:59;9.65;;;2.30;;
64282;SDS011;50497;50.720;-2.084;2023-12-20T09:25:25;8.52;;;2.15;;
64282;SDS011;50497;50.720;-2.084;2023-12-20T09:27:51;11.63;;;2.90;;
64282;SDS011;50497;50.720;-2.084;2023-12-20T09:30:17;10.40;;;2.75;;
64282;SDS011;50497;50.720;-2.084;2023-12-20T09:32:43;13.05;;;3.90;;
64282;SDS011;50497;50.720;-2.084;2023-12-20T09:35:08;8.32;;;1.88;;
64282;SDS011;50497;50.720;-2.084;2023-12-20T09:37:34;9.13;;;1.88;;
64282;SDS011;50497;50.720;-2.084;2023-12-20T09:39:59;10.77;;;1.90;;
64282;SDS011;50497;50.720;-2.084;2023-12-20T09:42:29;9.47;;;1.93;;
64282;SDS011;50497;50.720;-2.084;2023-12-20T09:45:03;10.57;;;2.40;;
64282;SDS011;50497;50.720;-2.084;2023-12-20T09:47:33;9.77;;;2.28;;
64282;SDS011;50497;50.720;-2.084;2023-12-20T09:50:00;8.35;;;1.65;;
64282;SDS011;50497;50.720;-2.084;2023-12-20T09:52:25;7.57;;;1.70;;
64282;SDS011;50497;50.720;-2.084;2023-12-20T09:54:52;10.25;;;2.30;;
64282;SDS011;50497;50.720;-2.084;2023-12-20T09:57:18;9.95;;;2.30;;
64282;SDS011;50497;50.720;-2.084;2023-12-20T09:59:43;8.97;;;2.13;;
64282;SDS011;50497;50.720;-2.084;2023-12-20T10:02:10;11.17;;;3.30;;
64282;SDS011;50497;50.720;-2.084;2023-12-20T10:04:46;8.63;;;2.10;;
64282;SDS011;50497;50.720;-2.084;2023-12-20T10:07:15;7.88;;;1.98;;
64282;SDS011;50497;50.720;-2.084;2023-12-20T10:09:41;7.00;;;1.50;;
64282;SDS011;50497;50.720;-2.084;2023-12-20T10:12:07;8.82;;;2.47;;
64282;SDS011;50497;50.720;-2.084;2023-12-20T10:14:32;8.97;;;1.93;;
64282;SDS011;50497;50.720;-2.084;2023-12-20T10:17:02;9.30;;;3.07;;
64282;SDS011;50497;50.720;-2.084;2023-12-20T10:19:28;8.80;;;2.20;;
64282;SDS011;50497;50.720;-2.084;2023-12-20T10:21:54;24.23;;;9.97;;
64282;SDS011;50497;50.720;-2.084;2023-12-20T10:24:19;8.45;;;2.20;;
64282;SDS011;50497;50.720;-2.084;2023-12-20T10:26:45;10.27;;;3.22;;
64282;SDS011;50497;50.720;-2.084;2023-12-20T10:29:11;10.27;;;2.50;;
64282;SDS011;50497;50.720;-2.084;2023-12-20T10:31:36;11.33;;;4.30;;
64282;SDS011;50497;50.720;-2.084;2023-12-20T10:34:03;7.05;;;2.17;;
64282;SDS011;50497;50.720;-2.084;2023-12-20T10:36:30;9.57;;;2.40;;
64282;SDS011;50497;50.720;-2.084;2023-12-20T10:38:57;9.65;;;2.78;;
64282;SDS011;50497;50.720;-2.084;2023-12-20T10:41:27;7.70;;;1.90;;
64282;SDS011;50497;50.720;-2.084;2023-12-20T10:43:55;8.43;;;2.10;;
64282;SDS011;50497;50.720;-2.084;2023-12-20T10:46:23;8.30;;;1.65;;
64282;SDS011;50497;50.720;-2.084;2023-12-20T10:48:51;7.27;;;1.47;;
64282;SDS011;50497;50.720;-2.084;2023-12-20T10:51:19;9.13;;;2.95;;
64282;SDS011;50497;50.720;-2.084;2023-12-20T10:53:46;6.80;;;2.00;;
64282;SDS011;50497;50.720;-2.084;2023-12-20T10:56:15;6.57;;;1.65;;
64282;SDS011;50497;50.720;-2.084;2023-12-20T10:58:42;6.88;;;1.58;;
64282;SDS011;50497;50.720;-2.084;2023-12-20T11:01:10;8.35;;;1.75;;
64282;SDS011;50497;50.720;-2.084;2023-12-20T11:03:38;16.30;;;3.20;;
64282;SDS011;50497;50.720;-2.084;2023-12-20T11:08:58;7.47;;;2.10;;
64282;SDS011;50497;50.720;-2.084;2023-12-20T11:14:51;8.63;;;2.60;;
64282;SDS011;50497;50.720;-2.084;2023-12-20T11:17:22;9.03;;;2.90;;
64282;SDS011;50497;50.720;-2.084;2023-12-20T11:22:17;8.95;;;2.13;;
64282;SDS011;50497;50.720;-2.084;2023-12-20T11:24:44;7.63;;;2.13;;
64282;SDS011;50497;50.720;-2.084;2023-12-20T11:27:11;7.40;;;1.77;;
64282;SDS011;50497;50.720;-2.084;2023-12-20T11:29:38;8.40;;;2.70;;
64282;SDS011;50497;50.720;-2.084;2023-12-20T11:32:50;5.68;;;1.50;;
64282;SDS011;50497;50.720;-2.084;2023-12-20T11:34:50;8.35;;;1.65;;
64282;SDS011;50497;50.720;-2.084;2023-12-20T11:37:16;6.65;;;1.50;;
64282;SDS011;50497;50.720;-2.084;2023-12-20T11:39:44;7.57;;;1.45;;
64282;SDS011;50497;50.720;-2.084;2023-12-20T11:42:10;7.30;;;2.00;;
64282;SDS011;50497;50.720;-2.084;2023-12-20T11:44:36;5.63;;;1.77;;
64282;SDS011;50497;50.720;-2.084;2023-12-20T11:47:02;11.70;;;5.10;;
64282;SDS011;50497;50.720;-2.084;2023-12-20T11:49:28;15.40;;;7.13;;
64282;SDS011;50497;50.720;-2.084;2023-12-20T11:51:55;13.20;;;6.13;;
64282;SDS011;50497;50.720;-2.084;2023-12-20T11:54:21;11.07;;;4.13;;
64282;SDS011;50497;50.720;-2.084;2023-12-20T11:56:47;22.38;;;9.70;;
64282;SDS011;50497;50.720;-2.084;2023-12-20T11:59:13;8.43;;;3.00;;
64282;SDS011;50497;50.720;-2.084;2023-12-20T12:01:38;15.60;;;6.60;;
64282;SDS011;50497;50.720;-2.084;2023-12-20T12:04:07;9.73;;;4.07;;
64282;SDS011;50497;50.720;-2.084;2023-12-20T12:06:32;9.65;;;3.80;;
64282;SDS011;50497;50.720;-2.084;2023-12-20T12:08:58;12.30;;;4.78;;
64282;SDS011;50497;50.720;-2.084;2023-12-20T12:11:24;9.82;;;3.10;;
64282;SDS011;50497;50.720;-2.084;2023-12-20T12:13:49;12.40;;;4.03;;
64282;SDS011;50497;50.720;-2.084;2023-12-20T12:16:19;10.03;;;2.77;;
64282;SDS011;50497;50.720;-2.084;2023-12-20T12:18:45;7.05;;;2.20;;
64282;SDS011;50497;50.720;-2.084;2023-12-20T12:21:18;6.55;;;1.65;;
64282;SDS011;50497;50.720;-2.084;2023-12-20T12:23:44;11.97;;;7.63;;
64282;SDS011;50497;50.720;-2.084;2023-12-20T12:26:10;6.88;;;2.30;;
64282;SDS011;50497;50.720;-2.084;2023-12-20T12:28:35;6.97;;;1.50;;
64282;SDS011;50497;50.720;-2.084;2023-12-20T12:31:02;7.00;;;1.85;;
64282;SDS011;50497;50.720;-2.084;2023-12-20T12:33:28;6.20;;;1.77;;
64282;SDS011;50497;50.720;-2.084;2023-12-20T12:35:53;6.23;;;1.30;;
64282;SDS011;50497;50.720;-2.084;2023-12-20T12:38:20;7.03;;;1.70;;
64282;SDS011;50497;50.720;-2.084;2023-12-20T12:40:46;6.13;;;1.40;;
64282;SDS011;50497;50.720;-2.084;2023-12-20T12:43:12;6.50;;;1.67;;
64282;SDS011;50497;50.720;-2.084;2023-12-20T12:45:37;6.03;;;1.50;;
64282;SDS011;50497;50.720;-2.084;2023-12-20T12:48:03;6.77;;;2.10;;
64282;SDS011;50497;50.720;-2.084;2023-12-20T12:50:30;8.45;;;3.20;;
64282;SDS011;50497;50.720;-2.084;2023-12-20T12:52:56;7.95;;;2.70;;
64282;SDS011;50497;50.720;-2.084;2023-12-20T12:55:21;5.37;;;1.70;;
64282;SDS011;50497;50.720;-2.084;2023-12-20T12:57:46;4.93;;;1.50;;
64282;SDS011;50497;50.720;-2.084;2023-12-20T13:00:12;4.55;;;1.35;;
64282;SDS011;50497;50.720;-2.084;2023-12-20T13:02:39;4.72;;;1.30;;
64282;SDS011;50497;50.720;-2.084;2023-12-20T13:05:07;5.90;;;1.40;;
64282;SDS011;50497;50.720;-2.084;2023-12-20T13:07:33;4.68;;;1.40;;
64282;SDS011;50497;50.720;-2.084;2023-12-20T13:09:59;5.07;;;1.37;;
64282;SDS011;50497;50.720;-2.084;2023-12-20T13:12:25;6.88;;;2.00;;
64282;SDS011;50497;50.720;-2.084;2023-12-20T13:14:51;6.03;;;1.50;;
64282;SDS011;50497;50.720;-2.084;2023-12-20T13:17:16;7.50;;;1.67;;
64282;SDS011;50497;50.720;-2.084;2023-12-20T13:19:42;6.30;;;1.55;;
64282;SDS011;50497;50.720;-2.084;2023-12-20T13:22:07;7.53;;;2.20;;
64282;SDS011;50497;50.720;-2.084;2023-12-20T13:24:33;7.33;;;2.30;;
64282;SDS011;50497;50.720;-2.084;2023-12-20T13:26:58;8.30;;;2.30;;
64282;SDS011;50497;50.720;-2.084;2023-12-20T13:29:24;6.40;;;1.80;;
64282;SDS011;50497;50.720;-2.084;2023-12-20T13:31:52;7.38;;;2.22;;
64282;SDS011;50497;50.720;-2.084;2023-12-20T13:34:18;12.80;;;5.88;;
64282;SDS011;50497;50.720;-2.084;2023-12-20T13:36:43;18.85;;;8.65;;
64282;SDS011;50497;50.720;-2.084;2023-12-20T13:39:13;24.77;;;11.87;;
64282;SDS011;50497;50.720;-2.084;2023-12-20T13:41:39;40.13;;;20.17;;
64282;SDS011;50497;50.720;-2.084;2023-12-20T13:44:04;49.70;;;27.15;;
64282;SDS011;50497;50.720;-2.084;2023-12-20T13:46:30;52.97;;;28.03;;
64282;SDS011;50497;50.720;-2.084;2023-12-20T13:48:56;38.42;;;20.83;;
64282;SDS011;50497;50.720;-2.084;2023-12-20T13:51:21;16.57;;;8.00;;
64282;SDS011;50497;50.720;-2.084;2023-12-20T13:53:47;7.63;;;2.90;;
64282;SDS011;50497;50.720;-2.084;2023-12-20T13:56:13;7.03;;;2.10;;
64282;SDS011;50497;50.720;-2.084;2023-12-20T13:58:39;6.00;;;1.55;;
64282;SDS011;50497;50.720;-2.084;2023-12-20T14:01:08;5.95;;;1.80;;
64282;SDS011;50497;50.720;-2.084;2023-12-20T14:03:35;6.07;;;1.30;;
64282;SDS011;50497;50.720;-2.084;2023-12-20T14:06:01;8.03;;;1.63;;
64282;SDS011;50497;50.720;-2.084;2023-12-20T14:08:26;6.87;;;1.23;;
64282;SDS011;50497;50.720;-2.084;2023-12-20T14:10:52;6.03;;;1.30;;
64282;SDS011;50497;50.720;-2.084;2023-12-20T14:13:18;8.05;;;2.03;;
64282;SDS011;50497;50.720;-2.084;2023-12-20T14:15:45;8.07;;;1.80;;
64282;SDS011;50497;50.720;-2.084;2023-12-20T14:18:11;7.05;;;2.40;;
64282;SDS011;50497;50.720;-2.084;2023-12-20T14:20:39;6.78;;;2.10;;
64282;SDS011;50497;50.720;-2.084;2023-12-20T14:23:07;5.80;;;2.10;;
64282;SDS011;50497;50.720;-2.084;2023-12-20T14:25:34;7.28;;;2.47;;
64282;SDS011;50497;50.720;-2.084;2023-12-20T14:28:02;7.32;;;3.00;;